Map

Track Data

SID SEASON NUMBER BASIN SUBBASIN NAME ISO_TIME NATURE LAT LON WMO_WIND WMO_PRES WMO_AGENCY TRACK_TYPE DIST2LAND LANDFALL IFLAG USA_AGENCY USA_ATCF_ID USA_LAT USA_LON USA_RECORD USA_STATUS USA_WIND USA_PRES USA_SSHS USA_R34_NE USA_R34_SE USA_R34_SW USA_R34_NW USA_R50_NE USA_R50_SE USA_R50_SW USA_R50_NW USA_R64_NE USA_R64_SE USA_R64_SW USA_R64_NW USA_POCI USA_ROCI USA_RMW USA_EYE TOKYO_LAT TOKYO_LON TOKYO_GRADE TOKYO_WIND TOKYO_PRES TOKYO_R50_DIR TOKYO_R50_LONG TOKYO_R50_SHORT TOKYO_R30_DIR TOKYO_R30_LONG TOKYO_R30_SHORT TOKYO_LAND CMA_LAT CMA_LON CMA_CAT CMA_WIND CMA_PRES HKO_LAT HKO_LON HKO_CAT HKO_WIND HKO_PRES NEWDELHI_LAT NEWDELHI_LON NEWDELHI_GRADE NEWDELHI_WIND NEWDELHI_PRES NEWDELHI_CI NEWDELHI_DP NEWDELHI_POCI REUNION_LAT REUNION_LON REUNION_TYPE REUNION_WIND REUNION_PRES REUNION_TNUM REUNION_CI REUNION_RMW REUNION_R34_NE REUNION_R34_SE REUNION_R34_SW REUNION_R34_NW REUNION_R50_NE REUNION_R50_SE REUNION_R50_SW REUNION_R50_NW REUNION_R64_NE REUNION_R64_SE REUNION_R64_SW REUNION_R64_NW BOM_LAT BOM_LON BOM_TYPE BOM_WIND BOM_PRES BOM_TNUM BOM_CI BOM_RMW BOM_R34_NE BOM_R34_SE BOM_R34_SW BOM_R34_NW BOM_R50_NE BOM_R50_SE BOM_R50_SW BOM_R50_NW BOM_R64_NE BOM_R64_SE BOM_R64_SW BOM_R64_NW BOM_ROCI BOM_POCI BOM_EYE BOM_POS_METHOD BOM_PRES_METHOD NADI_LAT NADI_LON NADI_CAT NADI_WIND NADI_PRES WELLINGTON_LAT WELLINGTON_LON WELLINGTON_WIND WELLINGTON_PRES DS824_LAT DS824_LON DS824_STAGE DS824_WIND DS824_PRES TD9636_LAT TD9636_LON TD9636_STAGE TD9636_WIND TD9636_PRES TD9635_LAT TD9635_LON TD9635_WIND TD9635_PRES TD9635_ROCI NEUMANN_LAT NEUMANN_LON NEUMANN_CLASS NEUMANN_WIND NEUMANN_PRES MLC_LAT MLC_LON MLC_CLASS MLC_WIND MLC_PRES USA_GUST BOM_GUST BOM_GUST_PER REUNION_GUST REUNION_GUST_PER USA_SEAHGT USA_SEARAD_NE USA_SEARAD_SE USA_SEARAD_SW USA_SEARAD_NW STORM_SPEED STORM_DIR
1960312N11069 1960 85 NI AS NOT_NAMED 1960-11-06 18:00:00 TS 10.5000 69.2000 main 662 662 O________O____ jtwc_io IO141960 10.5000 69.2000 -1 10.5000 69.2000 TC 2 285
1960312N11069 1960 85 NI AS NOT_NAMED 1960-11-06 21:00:00 TS 10.5200 69.1175 main 672 668 P________P____ IO141960 10.5200 69.1175 -1 10.5200 69.1175 TC 2 297
1960312N11069 1960 85 NI AS NOT_NAMED 1960-11-07 00:00:00 TS 10.6000 69.0000 main 678 678 O________O____ jtwc_io IO141960 10.6000 69.0000 -1 10.6000 69.0000 TC 25 4 312
1960312N11069 1960 85 NI AS NOT_NAMED 1960-11-07 03:00:00 TS 10.7800 68.8200 main 690 690 P________PO___ IO141960 10.7775 68.8225 -1 10.7775 68.8225 TC 25 10.8000 68.8000 1 6 315
1960312N11069 1960 85 NI AS NOT_NAMED 1960-11-07 06:00:00 TS 10.9991 68.5913 main 704 704 O________OP___ jtwc_io IO141960 11.0000 68.6000 -1 11.0000 68.6000 TC 25 10.9954 68.5564 1 6 312
1960312N11069 1960 85 NI AS NOT_NAMED 1960-11-07 09:00:00 TS 11.1980 68.3446 main 729 726 P________PP___ IO141960 11.2000 68.3575 -1 11.2000 68.3575 TC 25 11.1926 68.3101 1 6 309
1960312N11069 1960 85 NI AS NOT_NAMED 1960-11-07 12:00:00 TS 11.3978 68.0863 main 745 745 O________OP___ jtwc_io IO141960 11.4000 68.1000 -1 11.4000 68.1000 TC 25 11.3935 68.0588 1 6 309
1960312N11069 1960 85 NI AS NOT_NAMED 1960-11-07 15:00:00 TS 11.6000 67.8333 main 767 761 P________PO___ IO141960 11.6000 67.8500 -1 11.6000 67.8500 TC 25 11.6000 67.8000 1 6 309
1960312N11069 1960 85 NI AS NOT_NAMED 1960-11-07 18:00:00 TS 11.8041 67.5779 main 775 775 O________OP___ jtwc_io IO141960 11.8000 67.6000 -1 11.8000 67.6000 TC 25 11.8122 67.5338 1 6 309
1960312N11069 1960 85 NI AS NOT_NAMED 1960-11-07 21:00:00 TS 12.0075 67.3233 main 793 788 P________PP___ IO141960 12.0000 67.3500 -1 12.0000 67.3500 TC 25 12.0225 67.2701 1 6 309
1960312N11069 1960 85 NI AS NOT_NAMED 1960-11-08 00:00:00 TS 12.2072 67.0738 main 803 803 O________OP___ jtwc_io IO141960 12.2000 67.1000 -1 12.2000 67.1000 TC 25 12.2216 67.0213 1 6 309
1960312N11069 1960 85 NI AS NOT_NAMED 1960-11-08 03:00:00 TS 12.4100 66.8234 main 824 820 P________PO___ IO141960 12.4150 66.8350 -1 12.4150 66.8350 TC 25 12.4000 66.8000 1 6 309
1960312N11069 1960 85 NI AS NOT_NAMED 1960-11-08 06:00:00 TS 12.5835 66.6057 main 836 836 O________OP___ jtwc_io IO141960 12.6000 66.6000 -1 12.6000 66.6000 TC 25 12.5505 66.6170 1 5 308
1960312N11069 1960 85 NI AS NOT_NAMED 1960-11-08 09:00:00 TS 12.7033 66.4391 main 851 847 P________PP___ IO141960 12.7150 66.4274 -1 12.7150 66.4274 TC 25 12.6799 66.4623 1 4 307
1960312N11069 1960 85 NI AS NOT_NAMED 1960-11-08 12:00:00 TS 12.7981 66.3088 main 857 857 O________OP___ jtwc_io IO141960 12.8000 66.3000 -1 12.8000 66.3000 TC 25 12.7943 66.3264 1 3 310
1960312N11069 1960 85 NI AS NOT_NAMED 1960-11-08 15:00:00 TS 12.9000 66.2000 main 863 863 P________PO___ IO141960 12.9000 66.2000 -1 12.9000 66.2000 TC 25 12.9000 66.2000 1 3 312
1960312N11069 1960 85 NI AS NOT_NAMED 1960-11-08 18:00:00 TS 12.9956 66.0879 main 867 867 O________OP___ jtwc_io IO141960 13.0000 66.1000 -1 13.0000 66.1000 TC 25 12.9869 66.0636 1 3 307
1960312N11069 1960 85 NI AS NOT_NAMED 1960-11-08 21:00:00 TS 13.0850 65.9449 main 882 882 P________PP___ IO141960 13.0925 65.9500 -1 13.0925 65.9500 TC 25 13.0700 65.9348 1 3 305
1960312N11069 1960 85 NI AS NOT_NAMED 1960-11-09 00:00:00 TS 13.1894 65.8045 main 886 886 O________OP___ jtwc_io IO141960 13.2000 65.8000 -1 13.2000 65.8000 TC 25 13.1681 65.8136 1 3 314
1960312N11069 1960 85 NI AS NOT_NAMED 1960-11-09 03:00:00 TS 13.3183 65.6950 main 891 887 P________PO___ IO141960 13.3275 65.6925 -1 13.3275 65.6925 TC 25 13.3000 65.7000 1 4 326
1960312N11069 1960 85 NI AS NOT_NAMED 1960-11-09 06:00:00 TS 13.4991 65.5855 main 892 888 O________OP___ jtwc_io IO141960 13.5000 65.6000 -1 13.5000 65.6000 TC 25 13.4972 65.5565 1 5 332
1960312N11069 1960 85 NI AS NOT_NAMED 1960-11-09 09:00:00 TS 13.7375 65.4701 main 894 890 P________PP___ IO141960 13.7425 65.4925 -1 13.7425 65.4925 TC 25 13.7275 65.4254 1 5 338
1960312N11069 1960 85 NI AS NOT_NAMED 1960-11-09 12:00:00 TS 13.9897 65.3772 main 892 889 O________OP___ jtwc_io IO141960 14.0000 65.4000 -1 14.0000 65.4000 TC 25 13.9690 65.3315 1 5 341
1960312N11069 1960 85 NI AS NOT_NAMED 1960-11-09 15:00:00 TS 14.2100 65.3084 main 895 889 P________PO___ IO141960 14.2150 65.3125 -1 14.2150 65.3125 TC 25 14.2000 65.3000 1 4 353
1960312N11069 1960 85 NI AS NOT_NAMED 1960-11-09 18:00:00 TS 14.4014 65.3193 main 889 872 O________OP___ jtwc_io IO141960 14.4000 65.3000 -1 14.4000 65.3000 TC 25 14.4035 65.3481 1 4 18
1960312N11069 1960 85 NI AS NOT_NAMED 1960-11-09 21:00:00 TS 14.5683 65.4337 main 872 849 P________PP___ IO141960 14.5576 65.4124 -1 14.5576 65.4124 TC 25 14.5826 65.4620 1 4 41
1960312N11069 1960 85 NI AS NOT_NAMED 1960-11-10 00:00:00 TS 14.7227 65.6100 main 849 822 O________OP___ jtwc_io IO141960 14.7000 65.6000 -1 14.7000 65.6000 TC 25 14.7455 65.6199 1 5 47
1960312N11069 1960 85 NI AS NOT_NAMED 1960-11-10 03:00:00 NR 14.9000 65.8000 main 822 __________O___ IO141960 -1 TC 14.9000 65.8000 1 5 46

About IBTrACS Database

This database is a web-friendly format of International Best Track Archive for Climate Stewardship (IBTrACS), a global best track data archive curated by NOAA dating back to 1842.

Updated: 2021-10-19